createdAt,value
2019-01-10T00:03:46.617Z,99.01
2019-01-10T00:06:15.146Z,99.79
2019-01-10T00:08:43.699Z,99.78
2019-01-10T00:11:12.153Z,99.54
2019-01-10T00:13:40.719Z,99.61
2019-01-10T00:16:09.305Z,99.63
2019-01-10T00:18:37.857Z,98.87
2019-01-10T00:21:06.567Z,99.17
2019-01-10T00:23:35.007Z,99.55
2019-01-10T00:26:03.843Z,97.97
2019-01-10T00:28:32.403Z,97.98
2019-01-10T00:31:00.949Z,97.95
2019-01-10T00:33:29.804Z,97.91
2019-01-10T00:35:58.363Z,97.86
2019-01-10T00:38:26.963Z,97.64
2019-01-10T00:40:55.458Z,97.71
2019-01-10T00:43:23.988Z,97.21
2019-01-10T00:45:52.569Z,97.16
2019-01-10T00:48:21.112Z,97.26
2019-01-10T00:53:38.766Z,97.08
2019-01-10T00:56:07.335Z,97.39
2019-01-10T00:58:35.866Z,97.51
2019-01-10T01:01:04.434Z,96.89
2019-01-10T01:03:33.073Z,96.88
2019-01-10T01:06:01.540Z,97.08
2019-01-10T01:08:30.101Z,96.49
2019-01-10T01:10:58.638Z,96.16
2019-01-10T01:13:27.142Z,96.34
2019-01-10T01:15:55.636Z,96.83
2019-01-10T01:18:24.146Z,96.83
2019-01-10T01:20:52.705Z,95.83
2019-01-10T01:23:21.319Z,96.40
2019-01-10T01:25:49.833Z,96.01
2019-01-10T01:28:18.640Z,95.45
2019-01-10T01:30:47.114Z,95.83
2019-01-10T01:33:15.592Z,95.52
2019-01-10T01:35:44.084Z,95.75
2019-01-10T01:38:12.650Z,95.50
2019-01-10T01:40:41.068Z,96.08
2019-01-10T01:43:09.639Z,95.57
2019-01-10T01:45:38.140Z,95.13
2019-01-10T01:48:06.597Z,95.44
2019-01-10T01:50:35.588Z,95.39
2019-01-10T01:53:04.165Z,95.29
2019-01-10T01:55:32.801Z,95.53
2019-01-10T01:58:01.336Z,95.40
2019-01-10T02:00:29.909Z,95.78
2019-01-10T02:02:58.392Z,95.88
2019-01-10T02:05:27.000Z,95.43
2019-01-10T02:07:55.805Z,95.68
2019-01-10T02:10:45.225Z,95.66
2019-01-10T02:13:16.845Z,96.17
2019-01-10T02:15:43.795Z,95.22
2019-01-10T02:18:12.281Z,95.44
2019-01-10T02:20:41.087Z,96.00
2019-01-10T02:23:09.620Z,95.46
2019-01-10T02:25:38.118Z,95.60
2019-01-10T02:28:06.665Z,95.46
2019-01-10T02:30:41.767Z,95.86
2019-01-10T02:33:05.627Z,96.11
2019-01-10T02:35:34.148Z,96.35
2019-01-10T02:38:02.637Z,95.60
2019-01-10T02:40:31.101Z,96.06
2019-01-10T02:42:59.602Z,95.96
2019-01-10T02:45:28.082Z,96.03
2019-01-10T02:47:56.844Z,95.78
2019-01-10T02:50:25.345Z,95.92
2019-01-10T02:52:53.898Z,95.27
2019-01-10T02:55:22.406Z,95.10
2019-01-10T02:57:51.054Z,95.50
2019-01-10T03:00:21.550Z,95.24
2019-01-10T03:02:50.199Z,94.74
2019-01-10T03:05:18.873Z,94.95
2019-01-10T03:07:47.394Z,95.37
2019-01-10T03:10:21.424Z,94.24
2019-01-10T03:12:49.922Z,93.67
2019-01-10T03:15:18.454Z,92.71
2019-01-10T03:17:46.954Z,93.58
2019-01-10T03:20:22.786Z,93.95
2019-01-10T03:22:51.429Z,93.57
2019-01-10T03:25:20.236Z,93.25
2019-01-10T03:27:48.791Z,93.38
2019-01-10T03:30:18.789Z,93.21
2019-01-10T03:32:47.335Z,93.24
2019-01-10T03:35:15.787Z,93.39
2019-01-10T03:37:44.471Z,93.06
2019-01-10T03:40:18.276Z,92.61
2019-01-10T03:42:47.008Z,93.38
2019-01-10T03:45:17.468Z,93.37
2019-01-10T03:47:46.017Z,93.37
2019-01-10T03:50:16.482Z,92.03
2019-01-10T03:52:45.051Z,90.96
2019-01-10T03:55:13.894Z,91.52
2019-01-10T03:57:42.464Z,92.55
2019-01-10T04:00:19.409Z,91.27
2019-01-10T04:02:48.057Z,91.62
2019-01-10T04:05:16.573Z,91.06
2019-01-10T04:07:45.136Z,90.84
2019-01-10T04:10:15.169Z,91.45
2019-01-10T04:12:43.622Z,90.59
2019-01-10T04:15:13.700Z,90.39
2019-01-10T04:17:42.255Z,90.49
2019-01-10T04:20:13.564Z,91.00
2019-01-10T04:22:42.192Z,90.55
2019-01-10T04:25:13.090Z,91.11
2019-01-10T04:27:41.620Z,90.92
2019-01-10T04:30:16.130Z,91.59
2019-01-10T04:32:44.715Z,91.34
2019-01-10T04:35:13.240Z,91.66
2019-01-10T04:37:41.713Z,91.14
2019-01-10T04:40:13.465Z,90.96
2019-01-10T04:42:41.933Z,90.88
2019-01-10T04:45:10.496Z,90.52
2019-01-10T04:47:39.025Z,90.11
2019-01-10T04:50:10.371Z,90.58
2019-01-10T04:52:38.927Z,90.71
2019-01-10T04:55:08.773Z,90.20
2019-01-10T04:57:37.423Z,89.81
2019-01-10T05:00:17.547Z,89.67
2019-01-10T05:02:46.220Z,90.21
2019-01-10T05:05:14.678Z,89.79
2019-01-10T05:07:43.241Z,89.76
2019-01-10T05:10:11.962Z,90.40
2019-01-10T05:12:41.824Z,90.50
2019-01-10T05:15:12.696Z,90.31
2019-01-10T05:17:41.319Z,90.49
2019-01-10T05:20:12.890Z,90.57
2019-01-10T05:22:41.552Z,91.05
2019-01-10T05:25:10.084Z,90.71
2019-01-10T05:27:38.568Z,90.68
2019-01-10T05:30:10.245Z,91.35
2019-01-10T05:32:38.803Z,91.72
2019-01-10T05:35:07.495Z,91.77
2019-01-10T05:37:36.172Z,91.58
2019-01-10T05:40:07.124Z,91.76
2019-01-10T05:42:35.651Z,90.47
2019-01-10T05:45:06.212Z,90.53
2019-01-10T05:47:34.739Z,90.70
2019-01-10T05:50:03.566Z,91.14
2019-01-10T05:52:32.490Z,91.32
2019-01-10T05:55:01.043Z,90.29
2019-01-10T05:57:29.563Z,90.24
2019-01-10T05:59:58.094Z,90.23
2019-01-10T06:02:26.594Z,90.43
2019-01-10T06:04:55.240Z,90.26
2019-01-10T06:07:23.868Z,90.29
2019-01-10T06:09:52.313Z,90.23
2019-01-10T06:12:20.951Z,89.99
2019-01-10T06:14:49.546Z,89.75
2019-01-10T06:17:18.088Z,89.92
2019-01-10T06:19:46.726Z,89.77
2019-01-10T06:22:15.372Z,90.01
2019-01-10T06:24:43.966Z,89.28
2019-01-10T06:27:12.804Z,88.58
2019-01-10T06:29:41.407Z,89.33
2019-01-10T06:32:10.045Z,88.85
2019-01-10T06:34:38.606Z,89.12
2019-01-10T06:37:07.110Z,88.54
2019-01-10T06:39:35.672Z,88.82
2019-01-10T06:42:04.182Z,88.55
2019-01-10T06:44:32.733Z,88.88
2019-01-10T06:47:01.352Z,88.37
2019-01-10T06:49:29.938Z,87.99
2019-01-10T06:51:58.629Z,87.95
2019-01-10T06:54:27.180Z,88.45
2019-01-10T06:56:55.730Z,87.68
2019-01-10T06:59:24.717Z,88.01
2019-01-10T07:01:53.565Z,87.66
2019-01-10T07:04:22.080Z,88.38
2019-01-10T07:06:50.664Z,88.09
2019-01-10T07:09:19.273Z,87.10
2019-01-10T07:11:47.847Z,87.52
2019-01-10T07:14:16.409Z,87.06
2019-01-10T07:16:53.330Z,87.04
2019-01-10T07:19:18.521Z,87.36
2019-01-10T07:21:55.781Z,87.90
2019-01-10T07:24:25.042Z,87.22
2019-01-10T07:26:56.653Z,87.62
2019-01-10T07:29:25.179Z,87.92
2019-01-10T07:31:56.742Z,87.29
2019-01-10T07:34:25.340Z,86.71
2019-01-10T07:36:53.857Z,86.85
2019-01-10T07:39:22.427Z,86.65
2019-01-10T07:41:50.940Z,86.44
2019-01-10T07:44:22.592Z,87.17
2019-01-10T07:46:51.147Z,86.44
2019-01-10T07:49:22.875Z,86.35
2019-01-10T07:51:51.489Z,86.26
2019-01-10T07:54:19.991Z,86.68
2019-01-10T07:56:48.438Z,87.20
2019-01-10T07:59:16.984Z,87.18
2019-01-10T08:01:45.501Z,87.10
2019-01-10T08:04:13.986Z,87.22
2019-01-10T08:06:42.533Z,86.41
2019-01-10T08:09:11.107Z,87.02
2019-01-10T08:11:40.202Z,85.38
2019-01-10T08:14:09.817Z,84.60
2019-01-10T08:16:38.445Z,84.92
2019-01-10T08:19:07.143Z,83.80
2019-01-10T08:21:35.827Z,83.81
2019-01-10T08:24:04.372Z,84.89
2019-01-10T08:26:33.002Z,85.56
2019-01-10T08:29:01.653Z,84.98
2019-01-10T08:31:30.258Z,83.71
2019-01-10T08:33:58.748Z,84.84
2019-01-10T08:36:32.317Z,85.28
2019-01-10T08:38:57.910Z,84.90
2019-01-10T08:41:26.467Z,84.15
2019-01-10T08:43:55.087Z,83.68
2019-01-10T08:46:23.694Z,83.84
2019-01-10T08:48:52.139Z,83.81
2019-01-10T08:51:20.962Z,83.71
2019-01-10T08:53:54.092Z,83.01
2019-01-10T08:56:19.660Z,83.14
2019-01-10T08:58:48.238Z,83.16
2019-01-10T09:01:16.776Z,82.98
2019-01-10T09:03:45.334Z,82.83
2019-01-10T09:06:13.924Z,82.86
2019-01-10T09:08:42.477Z,83.15
2019-01-10T09:11:11.022Z,83.78
2019-01-10T09:13:39.968Z,82.07
2019-01-10T09:16:08.574Z,82.44
2019-01-10T09:18:37.045Z,82.95
2019-01-10T09:21:05.682Z,83.42
2019-01-10T09:23:34.188Z,82.90
2019-01-10T09:26:02.782Z,83.13
2019-01-10T09:28:31.367Z,82.72
2019-01-10T09:31:00.021Z,81.74
2019-01-10T09:33:28.485Z,81.00
2019-01-10T09:35:57.245Z,80.91
2019-01-10T09:38:25.790Z,81.16
2019-01-10T09:40:54.373Z,81.27
2019-01-10T09:43:22.847Z,80.58
2019-01-10T09:45:51.406Z,80.91
2019-01-10T09:48:19.871Z,81.17
2019-01-10T09:50:48.433Z,80.78
2019-01-10T09:53:17.196Z,78.82
2019-01-10T09:55:45.745Z,78.87
2019-01-10T09:58:14.390Z,79.10
2019-01-10T10:00:42.914Z,78.56
2019-01-10T10:03:11.473Z,79.14
2019-01-10T10:05:40.057Z,78.62
2019-01-10T10:08:08.643Z,78.38
2019-01-10T10:10:37.193Z,77.06
2019-01-10T10:13:08.551Z,77.66
2019-01-10T10:15:37.072Z,78.41
2019-01-10T10:18:05.708Z,77.26
2019-01-10T10:20:34.231Z,78.53
2019-01-10T10:23:02.841Z,78.24
2019-01-10T10:25:31.530Z,77.29
2019-01-10T10:27:59.985Z,76.79
2019-01-10T10:30:28.630Z,77.12
2019-01-10T10:32:57.098Z,76.92
2019-01-10T10:35:25.637Z,77.04
2019-01-10T10:37:54.186Z,77.55
2019-01-10T10:40:22.849Z,78.29
2019-01-10T10:42:51.303Z,78.66
2019-01-10T10:45:20.356Z,79.08
2019-01-10T10:47:49.118Z,77.73
2019-01-10T10:50:20.387Z,77.46
2019-01-10T10:52:48.960Z,78.33
2019-01-10T10:55:17.501Z,77.71
2019-01-10T10:57:46.105Z,77.51
2019-01-10T11:00:18.816Z,76.94
2019-01-10T11:02:47.458Z,78.00
2019-01-10T11:05:16.327Z,76.91
2019-01-10T11:07:44.799Z,76.24
2019-01-10T11:10:15.967Z,75.90
2019-01-10T11:12:44.485Z,75.57
2019-01-10T11:15:13.098Z,75.56
2019-01-10T11:17:41.753Z,75.16
2019-01-10T11:20:18.468Z,75.49
2019-01-10T11:22:47.087Z,74.57
2019-01-10T11:25:17.688Z,74.03
2019-01-10T11:27:46.273Z,73.91
2019-01-10T11:30:17.165Z,74.40
2019-01-10T11:32:45.824Z,72.91
2019-01-10T11:35:14.623Z,73.40
2019-01-10T11:37:43.276Z,72.66
2019-01-10T11:40:16.967Z,72.05
2019-01-10T11:42:45.494Z,71.11
2019-01-10T11:45:16.465Z,71.97
2019-01-10T11:47:44.992Z,72.20
2019-01-10T11:50:15.398Z,73.37
2019-01-10T11:52:44.351Z,72.49
2019-01-10T11:55:13.163Z,72.55
2019-01-10T11:57:41.696Z,71.16
2019-01-10T12:00:21.772Z,71.42
2019-01-10T12:02:50.249Z,72.04
2019-01-10T12:05:18.817Z,72.14
2019-01-10T12:07:47.490Z,71.66
2019-01-10T12:10:16.102Z,71.89
2019-01-10T12:12:44.654Z,71.35
2019-01-10T12:15:13.577Z,72.16
2019-01-10T12:17:42.078Z,70.62
2019-01-10T12:20:13.745Z,69.57
2019-01-10T12:22:42.337Z,69.05
2019-01-10T12:25:12.700Z,69.68
2019-01-10T12:27:41.225Z,69.42
2019-01-10T12:30:19.073Z,69.53
2019-01-10T12:32:47.609Z,69.88
2019-01-10T12:35:16.160Z,68.83
2019-01-10T12:37:44.694Z,67.23
2019-01-10T12:40:15.280Z,68.89
2019-01-10T12:42:44.210Z,69.64
2019-01-10T12:45:20.121Z,68.96
2019-01-10T12:47:48.631Z,69.27
2019-01-10T12:50:22.479Z,69.25
2019-01-10T12:52:50.942Z,68.64
2019-01-10T12:55:19.501Z,69.78
2019-01-10T12:57:48.140Z,68.63
2019-01-10T13:00:22.061Z,69.15
2019-01-10T13:02:50.691Z,69.90
2019-01-10T13:05:19.441Z,70.00
2019-01-10T13:07:47.976Z,69.91
2019-01-10T13:10:17.810Z,68.14
2019-01-10T13:12:47.006Z,68.58
2019-01-10T13:15:17.631Z,68.20
2019-01-10T13:17:46.105Z,67.83
2019-01-10T13:20:14.765Z,68.27
2019-01-10T13:22:43.364Z,67.86
2019-01-10T13:25:14.281Z,67.96
2019-01-10T13:27:43.130Z,68.49
2019-01-10T13:30:17.000Z,69.04
2019-01-10T13:32:45.690Z,68.84
2019-01-10T13:35:14.338Z,69.74
2019-01-10T13:37:43.203Z,68.32
2019-01-10T13:40:12.616Z,68.72
2019-01-10T13:42:41.247Z,69.54
2019-01-10T13:45:11.700Z,69.62
2019-01-10T13:47:40.257Z,69.76
2019-01-10T13:50:11.836Z,68.92
2019-01-10T13:52:40.369Z,68.93
2019-01-10T13:55:11.072Z,68.88
2019-01-10T13:57:39.661Z,68.09
2019-01-10T14:00:11.470Z,68.65
2019-01-10T14:02:39.922Z,68.53
2019-01-10T14:05:10.623Z,67.99
2019-01-10T14:07:38.804Z,68.06
2019-01-10T14:10:10.783Z,68.15
2019-01-10T14:12:39.311Z,67.82
2019-01-10T14:15:11.087Z,67.59
2019-01-10T14:17:39.678Z,68.47
2019-01-10T14:20:10.059Z,68.54
2019-01-10T14:22:38.592Z,69.21
2019-01-10T14:25:07.712Z,69.60
2019-01-10T14:27:36.405Z,68.10
2019-01-10T14:30:10.578Z,68.87
2019-01-10T14:32:39.068Z,69.27
2019-01-10T14:35:07.695Z,67.50
2019-01-10T14:37:36.305Z,67.35
2019-01-10T14:40:07.079Z,67.87
2019-01-10T14:42:35.557Z,66.88
2019-01-10T14:45:05.716Z,66.61
2019-01-10T14:47:34.478Z,67.01
2019-01-10T14:50:03.039Z,67.33
2019-01-10T14:52:31.667Z,67.75
2019-01-10T14:55:00.237Z,67.77
2019-01-10T14:57:28.838Z,66.06
2019-01-10T14:59:57.413Z,67.08
2019-01-10T15:02:25.997Z,67.36
2019-01-10T15:04:54.636Z,67.71
2019-01-10T15:07:23.260Z,68.25
2019-01-10T15:09:51.923Z,67.47
2019-01-10T15:12:20.391Z,65.95
2019-01-10T15:14:49.050Z,65.64
2019-01-10T15:17:17.801Z,66.32
2019-01-10T15:19:46.593Z,65.86
2019-01-10T15:22:15.233Z,65.87
2019-01-10T15:24:43.859Z,66.32
2019-01-10T15:27:12.475Z,65.93
2019-01-10T15:29:41.032Z,66.24
2019-01-10T15:32:09.718Z,67.33
2019-01-10T15:34:38.217Z,67.20
2019-01-10T15:37:06.789Z,67.69
2019-01-10T15:39:38.396Z,68.03
2019-01-10T15:42:06.937Z,67.33
2019-01-10T15:44:35.532Z,68.30
2019-01-10T15:47:04.213Z,67.19
2019-01-10T15:49:32.935Z,67.74
2019-01-10T15:52:01.501Z,67.97
2019-01-10T15:54:29.990Z,67.38
2019-01-10T15:57:00.804Z,67.43
2019-01-10T15:59:28.835Z,67.39
2019-01-10T16:01:57.405Z,66.34
2019-01-10T16:04:26.065Z,64.05
2019-01-10T16:06:54.631Z,64.84
2019-01-10T16:09:25.852Z,65.56
2019-01-10T16:11:54.690Z,65.30
2019-01-10T16:14:23.198Z,65.17
2019-01-10T16:16:52.294Z,66.41
2019-01-10T16:19:20.898Z,65.91
2019-01-10T16:21:49.434Z,65.67
2019-01-10T16:24:17.911Z,65.87
2019-01-10T16:26:46.487Z,65.80
2019-01-10T16:29:15.015Z,65.68
2019-01-10T16:31:43.510Z,66.36
2019-01-10T16:34:11.984Z,66.41
2019-01-10T16:36:40.429Z,66.09
2019-01-10T16:39:09.337Z,66.47
2019-01-10T16:41:37.982Z,67.08
2019-01-10T16:44:06.501Z,66.80
2019-01-10T16:46:35.249Z,66.91
2019-01-10T16:49:03.821Z,67.29
2019-01-10T16:51:32.285Z,67.43
2019-01-10T16:54:00.874Z,66.96
2019-01-10T16:56:29.382Z,67.83
2019-01-10T16:58:57.876Z,68.04
2019-01-10T17:01:26.344Z,68.38
2019-01-10T17:03:54.887Z,68.72
2019-01-10T17:06:23.521Z,69.20
2019-01-10T17:08:52.421Z,69.16
2019-01-10T17:11:20.907Z,69.67
2019-01-10T17:13:49.588Z,69.83
2019-01-10T17:16:18.169Z,70.13
2019-01-10T17:18:46.679Z,70.29
2019-01-10T17:21:15.297Z,70.42
2019-01-10T17:23:43.828Z,70.84
2019-01-10T17:26:12.406Z,71.29
2019-01-10T17:28:41.216Z,71.31
2019-01-10T17:31:09.746Z,71.44
2019-01-10T17:33:38.289Z,71.73
2019-01-10T17:36:06.915Z,71.89
2019-01-10T17:38:35.483Z,71.88
2019-01-10T17:41:04.060Z,71.91
2019-01-10T17:43:32.584Z,72.15
2019-01-10T17:46:01.171Z,72.45
2019-01-10T17:48:29.641Z,72.43
2019-01-10T17:50:58.121Z,72.56
2019-01-10T17:53:26.732Z,72.77
2019-01-10T17:55:55.310Z,72.82
2019-01-10T17:58:23.864Z,73.00
2019-01-10T18:00:52.478Z,73.25
2019-01-10T18:03:21.068Z,73.50
2019-01-10T18:05:49.671Z,73.45
2019-01-10T18:08:18.164Z,73.69
2019-01-10T18:10:46.692Z,74.16
2019-01-10T18:13:15.295Z,74.33
2019-01-10T18:15:43.737Z,74.80
2019-01-10T18:18:12.317Z,74.78
2019-01-10T18:20:40.804Z,74.97
2019-01-10T18:23:09.450Z,74.51
2019-01-10T18:25:38.121Z,74.76
2019-01-10T18:28:06.703Z,74.87
2019-01-10T18:30:35.397Z,74.73
2019-01-10T18:33:04.253Z,74.74
2019-01-10T18:35:32.855Z,75.03
2019-01-10T18:38:01.376Z,74.75
2019-01-10T18:40:29.972Z,74.57
2019-01-10T18:42:58.503Z,74.45
2019-01-10T18:45:30.913Z,74.65
2019-01-10T18:47:59.507Z,74.21
2019-01-10T18:50:28.182Z,74.07
2019-01-10T18:52:56.961Z,73.81
2019-01-10T18:55:25.614Z,73.46
2019-01-10T18:57:54.280Z,73.07
2019-01-10T19:00:27.821Z,73.48
2019-01-10T19:02:56.952Z,73.04
2019-01-10T19:05:25.700Z,73.30
2019-01-10T19:07:54.264Z,73.83
2019-01-10T19:10:23.596Z,74.13
2019-01-10T19:12:52.220Z,73.89
2019-01-10T19:15:20.787Z,74.08
2019-01-10T19:17:49.450Z,74.14
2019-01-10T19:20:21.069Z,73.83
2019-01-10T19:22:49.548Z,73.89
2019-01-10T19:25:18.106Z,74.05
2019-01-10T19:27:46.625Z,74.41
2019-01-10T19:30:17.757Z,74.37
2019-01-10T19:32:46.531Z,74.51
2019-01-10T19:35:15.072Z,74.08
2019-01-10T19:37:43.588Z,74.55
2019-01-10T19:40:17.739Z,74.67
2019-01-10T19:42:46.174Z,74.73
2019-01-10T19:45:16.828Z,74.39
2019-01-10T19:47:45.498Z,74.76
2019-01-10T19:50:17.492Z,74.85
2019-01-10T19:52:46.172Z,74.89
2019-01-10T19:55:16.252Z,74.83
2019-01-10T19:57:44.741Z,74.68
2019-01-10T20:00:19.079Z,74.92
2019-01-10T20:02:48.581Z,74.75
2019-01-10T20:05:17.253Z,74.70
2019-01-10T20:07:45.741Z,74.46
2019-01-10T20:10:15.894Z,74.84
2019-01-10T20:12:44.461Z,74.71
2019-01-10T20:15:13.445Z,74.73
2019-01-10T20:17:42.034Z,75.10
2019-01-10T20:20:31.432Z,75.14
2019-01-10T20:23:00.269Z,75.19
2019-01-10T20:25:28.794Z,75.88
2019-01-10T20:27:57.360Z,76.15
2019-01-10T20:30:25.808Z,76.24
2019-01-10T20:32:54.392Z,76.18
2019-01-10T20:35:22.908Z,76.28
2019-01-10T20:37:51.572Z,76.37
2019-01-10T20:40:20.451Z,76.55
2019-01-10T20:42:49.042Z,76.79
2019-01-10T20:45:17.728Z,76.83
2019-01-10T20:47:46.333Z,76.77
2019-01-10T20:50:18.600Z,76.87
2019-01-10T20:52:47.206Z,76.61
2019-01-10T20:55:17.168Z,76.53
2019-01-10T20:57:45.780Z,76.63
2019-01-10T21:00:17.571Z,76.60
2019-01-10T21:02:46.092Z,76.45
2019-01-10T21:05:14.612Z,76.88
2019-01-10T21:07:44.876Z,76.64
2019-01-10T21:10:15.829Z,77.10
2019-01-10T21:12:44.463Z,77.07
2019-01-10T21:15:15.622Z,76.78
2019-01-10T21:17:44.368Z,77.13
2019-01-10T21:20:13.291Z,77.33
2019-01-10T21:22:41.756Z,77.40
2019-01-10T21:25:12.063Z,77.40
2019-01-10T21:27:40.880Z,76.72
2019-01-10T21:30:17.577Z,76.99
2019-01-10T21:32:47.556Z,77.20
2019-01-10T21:35:16.174Z,77.10
2019-01-10T21:37:44.719Z,77.16
2019-01-10T21:40:15.855Z,77.49
2019-01-10T21:42:44.392Z,77.77
2019-01-10T21:45:18.309Z,77.51
2019-01-10T21:47:46.820Z,77.46
2019-01-10T21:50:17.874Z,77.82
2019-01-10T21:52:46.622Z,78.15
2019-01-10T21:55:15.330Z,78.31
2019-01-10T21:57:43.910Z,78.42
2019-01-10T22:00:18.633Z,78.35
2019-01-10T22:02:47.132Z,78.35
2019-01-10T22:05:15.663Z,78.17
2019-01-10T22:07:44.198Z,78.08
2019-01-10T22:10:13.567Z,77.86
2019-01-10T22:12:42.189Z,77.87
2019-01-10T22:15:13.015Z,78.39
2019-01-10T22:17:41.675Z,78.28
2019-01-10T22:20:15.971Z,78.10
2019-01-10T22:22:44.538Z,78.41
2019-01-10T22:25:13.187Z,78.45
2019-01-10T22:27:41.793Z,78.70
2019-01-10T22:30:13.266Z,78.65
2019-01-10T22:32:41.852Z,78.02
2019-01-10T22:35:12.979Z,78.28
2019-01-10T22:37:43.169Z,78.24
2019-01-10T22:40:14.886Z,78.18
2019-01-10T22:42:45.298Z,77.79
2019-01-10T22:45:14.906Z,78.62
2019-01-10T22:47:43.619Z,78.91
2019-01-10T22:50:17.580Z,79.07
2019-01-10T22:52:46.368Z,79.18
2019-01-10T22:55:16.208Z,79.24
2019-01-10T22:57:44.972Z,78.97
2019-01-10T23:00:49.030Z,78.65
2019-01-10T23:03:17.643Z,79.32
2019-01-10T23:05:46.317Z,79.37
2019-01-10T23:08:14.952Z,79.69
2019-01-10T23:10:43.899Z,79.60
2019-01-10T23:13:12.475Z,79.10
2019-01-10T23:15:40.988Z,79.45
2019-01-10T23:18:09.822Z,79.37
2019-01-10T23:20:38.379Z,80.05
2019-01-10T23:23:09.813Z,80.11
2019-01-10T23:25:38.369Z,80.13
2019-01-10T23:28:06.936Z,80.52
2019-01-10T23:30:52.974Z,80.46
2019-01-10T23:33:21.729Z,80.62
2019-01-10T23:35:53.665Z,80.72
2019-01-10T23:38:23.804Z,81.04
2019-01-10T23:40:52.464Z,81.09
2019-01-10T23:43:21.281Z,81.23
2019-01-10T23:45:49.898Z,81.06
2019-01-10T23:48:18.447Z,80.85
2019-01-10T23:50:47.058Z,80.86
2019-01-10T23:53:15.607Z,81.13
2019-01-10T23:55:44.387Z,81.08
2019-01-10T23:58:12.998Z,80.98
